Time;durP1;ratioP1;P1;durP2;ratioP2;P2;SDS_P1;SDS_P2;PMS_P1;PMS_P2;Temp;Humidity;BMP_temperature;BMP_pressure;BME280_temperature;BME280_humidity;BME280_pressure;Samples;Min_cycle;Max_cycle;Signal;HPM_P1;HPM_P2
2023/07/31 00:02:01;;;;;;;4.78;2.60;;;21.80;99.90;;;;;;5073331;28;20504;-52
2023/07/31 00:05:05;;;;;;;4.82;2.90;;;21.80;99.90;;;;;;5073483;28;20051;-53
2023/07/31 00:08:09;;;;;;;6.95;2.92;;;21.90;99.90;;;;;;5073168;28;20047;-55
2023/07/31 00:11:14;;;;;;;7.95;2.88;;;21.80;99.90;;;;;;5073176;28;20052;-51
2023/07/31 00:14:17;;;;;;;4.13;2.35;;;21.80;99.90;;;;;;5073155;28;20047;-55
2023/07/31 00:17:22;;;;;;;4.75;2.95;;;21.80;99.90;;;;;;5072817;28;20517;-52
2023/07/31 00:20:26;;;;;;;4.45;2.78;;;21.80;99.90;;;;;;5073068;28;20498;-55
2023/07/31 00:23:32;;;;;;;5.40;3.10;;;21.80;99.90;;;;;;5072665;28;20056;-54
2023/07/31 00:26:35;;;;;;;6.28;2.67;;;21.80;99.90;;;;;;5072936;28;20067;-55
2023/07/31 00:29:39;;;;;;;7.28;2.88;;;21.80;99.90;;;;;;5073418;28;20518;-51
2023/07/31 00:32:45;;;;;;;5.22;3.00;;;21.70;99.90;;;;;;5072824;28;20407;-52
2023/07/31 00:35:51;;;;;;;4.80;2.85;;;21.80;99.90;;;;;;5072564;28;20530;-51
2023/07/31 00:38:56;;;;;;;4.18;2.97;;;21.70;99.90;;;;;;5072055;28;20048;-51
2023/07/31 00:42:00;;;;;;;5.20;3.10;;;21.70;99.90;;;;;;5071785;28;20052;-54
2023/07/31 00:45:04;;;;;;;5.70;2.88;;;21.70;99.90;;;;;;5072808;28;20597;-52
2023/07/31 00:48:09;;;;;;;11.18;3.95;;;21.60;99.90;;;;;;5072309;28;20044;-51
2023/07/31 00:51:13;;;;;;;6.90;2.90;;;21.60;99.90;;;;;;5072693;28;20059;-51
2023/07/31 00:54:17;;;;;;;9.43;3.70;;;21.60;99.90;;;;;;5071584;28;20524;-51
2023/07/31 00:57:23;;;;;;;4.63;2.83;;;21.60;99.90;;;;;;5070967;28;20040;-55
2023/07/31 01:00:28;;;;;;;7.28;2.90;;;21.60;99.90;;;;;;5072377;28;20044;-50
2023/07/31 01:03:33;;;;;;;6.45;3.40;;;21.60;99.90;;;;;;5070997;28;20048;-51
2023/07/31 01:06:45;;;;;;;7.85;3.90;;;21.60;99.90;;;;;;5071898;28;20090;-51
2023/07/31 01:10:30;;;;;;;10.35;3.10;;;21.60;99.90;;;;;;5072431;28;20044;-51
2023/07/31 01:13:35;;;;;;;6.28;2.92;;;21.50;99.90;;;;;;5009536;28;20053;-52
2023/07/31 01:16:38;;;;;;;10.20;3.30;;;21.40;99.90;;;;;;4998465;28;20076;-50
2023/07/31 01:19:43;;;;;;;6.75;3.55;;;21.40;99.90;;;;;;5072210;28;20047;-50
2023/07/31 01:23:11;;;;;;;5.30;3.15;;;21.40;99.90;;;;;;5071732;28;20513;-51
2023/07/31 01:26:21;;;;;;;7.60;3.28;;;21.40;99.90;;;;;;5071890;28;20051;-51
2023/07/31 01:29:25;;;;;;;9.15;3.50;;;21.40;99.90;;;;;;5070871;28;20518;-51
2023/07/31 01:32:29;;;;;;;9.45;4.00;;;21.40;99.90;;;;;;5070531;28;20036;-50
2023/07/31 01:35:37;;;;;;;8.95;3.55;;;21.50;99.90;;;;;;5071962;28;20063;-51
2023/07/31 01:38:41;;;;;;;7.25;3.78;;;21.40;99.90;;;;;;5071503;28;20514;-54
2023/07/31 01:41:46;;;;;;;8.32;3.60;;;21.40;99.90;;;;;;5071664;28;20040;-51
2023/07/31 01:44:50;;;;;;;7.45;3.45;;;21.30;99.90;;;;;;5071742;28;20052;-50
2023/07/31 01:47:54;;;;;;;8.40;3.55;;;21.20;99.90;;;;;;5071465;28;20399;-52
2023/07/31 01:51:00;;;;;;;8.32;3.30;;;21.20;99.90;;;;;;5071803;28;20399;-50
2023/07/31 01:54:06;;;;;;;5.22;2.85;;;21.10;99.90;;;;;;5071881;28;20043;-54
2023/07/31 01:57:10;;;;;;;9.95;3.55;;;21.10;99.90;;;;;;5071709;28;20047;-51
2023/07/31 02:00:14;;;;;;;7.25;3.00;;;21.10;99.90;;;;;;5070849;28;20060;-51
2023/07/31 02:03:18;;;;;;;8.35;3.15;;;21.10;99.90;;;;;;5071109;28;20330;-52
2023/07/31 02:06:22;;;;;;;4.85;3.03;;;21.10;99.90;;;;;;5071421;28;20072;-51
2023/07/31 02:09:26;;;;;;;20.85;3.65;;;21.10;99.90;;;;;;5070242;28;20059;-54
2023/07/31 02:12:31;;;;;;;7.07;3.60;;;21.20;99.90;;;;;;5070265;28;20404;-55
2023/07/31 02:15:36;;;;;;;6.28;2.95;;;21.30;99.90;;;;;;5071225;28;21357;-51
2023/07/31 02:18:41;;;;;;;9.77;3.20;;;21.30;99.90;;;;;;5070998;28;20506;-51
2023/07/31 02:21:45;;;;;;;8.82;3.33;;;21.30;99.90;;;;;;5070919;28;20431;-51
2023/07/31 02:24:49;;;;;;;7.13;3.17;;;21.40;99.90;;;;;;5070325;28;20052;-50
2023/07/31 02:27:53;;;;;;;6.90;3.20;;;21.40;99.90;;;;;;5070603;28;20055;-53
2023/07/31 02:30:57;;;;;;;8.55;2.92;;;21.40;99.90;;;;;;5070851;28;20040;-51
2023/07/31 02:34:01;;;;;;;13.15;3.30;;;21.40;99.90;;;;;;5070810;28;20059;-51
2023/07/31 02:37:05;;;;;;;11.32;3.38;;;21.50;99.90;;;;;;5070068;28;20122;-52
2023/07/31 02:40:09;;;;;;;11.55;3.80;;;21.50;99.90;;;;;;5070580;28;20047;-52
2023/07/31 02:43:14;;;;;;;8.05;3.42;;;21.50;99.90;;;;;;5070403;28;20051;-55
2023/07/31 02:46:18;;;;;;;15.68;3.78;;;21.50;99.90;;;;;;5070528;28;20047;-54
2023/07/31 02:49:23;;;;;;;12.50;3.50;;;21.50;99.90;;;;;;5070379;28;20051;-54
2023/07/31 02:52:27;;;;;;;17.98;3.95;;;21.50;99.90;;;;;;5070336;28;20051;-55
2023/07/31 02:55:30;;;;;;;16.20;3.70;;;21.50;99.90;;;;;;5070368;28;20499;-51
2023/07/31 02:58:35;;;;;;;11.30;3.70;;;21.50;99.90;;;;;;5069415;28;20052;-54
2023/07/31 03:01:39;;;;;;;8.55;3.17;;;21.50;99.90;;;;;;5070013;28;20039;-51
2023/07/31 03:04:43;;;;;;;9.18;3.30;;;21.50;99.90;;;;;;5069148;28;20055;-51
2023/07/31 03:07:47;;;;;;;10.93;3.35;;;21.50;99.90;;;;;;5069378;28;20047;-55
2023/07/31 03:10:51;;;;;;;7.68;3.65;;;21.50;99.90;;;;;;5070487;28;20067;-55
2023/07/31 03:13:55;;;;;;;6.18;3.33;;;21.60;99.90;;;;;;5069482;28;20063;-55
2023/07/31 03:17:00;;;;;;;9.57;3.90;;;21.60;99.90;;;;;;5069461;28;20052;-50
2023/07/31 03:20:05;;;;;;;13.50;5.22;;;21.50;99.90;;;;;;5069623;28;20052;-51
2023/07/31 03:23:16;;;;;;;11.50;4.53;;;20.80;99.90;;;;;;5068727;28;20048;-51
2023/07/31 03:26:22;;;;;;;14.63;5.57;;;20.40;99.90;;;;;;5069676;28;20071;-53
2023/07/31 03:29:26;;;;;;;8.90;4.70;;;19.80;99.90;;;;;;5069492;28;20039;-54
2023/07/31 03:32:31;;;;;;;8.07;4.68;;;19.70;99.90;;;;;;5069375;28;20402;-51
2023/07/31 03:35:36;;;;;;;12.52;4.90;;;19.50;99.90;;;;;;5069598;28;20048;-50
2023/07/31 03:38:40;;;;;;;8.30;4.38;;;19.60;99.90;;;;;;5069187;28;20039;-51
2023/07/31 03:41:44;;;;;;;11.18;4.70;;;19.60;99.90;;;;;;5068805;28;20052;-51
2023/07/31 03:44:50;;;;;;;11.52;4.88;;;19.50;99.90;;;;;;5069218;28;20048;-50
2023/07/31 03:47:54;;;;;;;21.75;6.47;;;19.40;99.90;;;;;;5069597;28;20055;-52
2023/07/31 03:50:58;;;;;;;9.38;5.35;;;19.20;99.90;;;;;;5069241;28;20047;-52
2023/07/31 03:54:02;;;;;;;10.73;5.25;;;19.20;99.90;;;;;;5069640;28;20044;-52
2023/07/31 03:57:07;;;;;;;9.82;5.20;;;19.20;99.90;;;;;;5069616;28;20048;-54
2023/07/31 04:00:11;;;;;;;13.02;6.18;;;19.00;99.90;;;;;;5069251;28;20059;-53
2023/07/31 04:03:19;;;;;;;12.57;5.45;;;18.80;99.90;;;;;;5069181;28;20052;-51
2023/07/31 04:06:23;;;;;;;15.60;6.00;;;18.80;99.90;;;;;;5069476;28;20039;-51
2023/07/31 04:09:28;;;;;;;9.82;5.22;;;18.90;99.90;;;;;;5069426;28;20052;-52
2023/07/31 04:12:33;;;;;;;9.32;5.90;;;18.90;99.90;;;;;;5069643;28;20502;-52
2023/07/31 04:15:38;;;;;;;9.50;5.38;;;18.90;99.90;;;;;;5069510;28;20051;-53
2023/07/31 04:18:42;;;;;;;11.85;5.60;;;18.80;99.90;;;;;;5069669;28;20054;-51
2023/07/31 04:21:47;;;;;;;11.55;6.65;;;18.80;99.90;;;;;;5069435;28;20056;-50
2023/07/31 04:24:52;;;;;;;11.85;5.40;;;18.80;99.90;;;;;;5069452;28;20043;-51
2023/07/31 04:27:55;;;;;;;9.75;5.20;;;18.80;99.90;;;;;;5069495;28;20377;-51
2023/07/31 04:30:59;;;;;;;14.20;6.15;;;18.90;99.90;;;;;;5073145;28;20482;-52
2023/07/31 04:34:05;;;;;;;9.02;5.72;;;18.90;99.90;;;;;;5073459;28;20063;-53
2023/07/31 04:37:09;;;;;;;14.23;6.10;;;19.00;99.90;;;;;;5073021;28;20047;-52
2023/07/31 04:40:13;;;;;;;10.07;5.70;;;19.00;99.90;;;;;;5072807;28;20043;-51
2023/07/31 04:43:17;;;;;;;11.32;5.82;;;19.00;99.90;;;;;;5072735;28;20533;-51
2023/07/31 04:46:21;;;;;;;12.35;6.80;;;19.10;99.90;;;;;;5073108;28;20052;-52
2023/07/31 04:49:26;;;;;;;11.18;6.43;;;19.20;99.90;;;;;;5072760;28;20044;-54
2023/07/31 04:52:31;;;;;;;18.48;6.35;;;19.30;99.90;;;;;;5072812;28;20040;-52
2023/07/31 04:55:36;;;;;;;11.38;5.95;;;19.40;99.90;;;;;;5072336;28;20059;-52
2023/07/31 04:58:40;;;;;;;8.75;5.47;;;19.70;99.90;;;;;;5072676;28;20047;-52
2023/07/31 05:01:45;;;;;;;12.57;6.15;;;21.80;99.90;;;;;;5071866;28;20402;-51
2023/07/31 05:04:49;;;;;;;9.98;4.82;;;24.40;99.90;;;;;;5072478;28;20043;-52
2023/07/31 05:07:53;;;;;;;10.85;4.68;;;26.20;99.90;;;;;;5071462;28;20616;-54
2023/07/31 05:10:58;;;;;;;11.38;4.75;;;27.40;99.90;;;;;;5072252;28;20403;-52
2023/07/31 05:14:02;;;;;;;10.18;4.20;;;28.20;99.90;;;;;;5072395;28;20063;-52
2023/07/31 05:17:06;;;;;;;14.57;4.07;;;29.40;99.90;;;;;;5073153;22;20080;-69
2023/07/31 05:20:11;;;;;;;9.88;4.25;;;30.10;99.90;;;;;;5070358;28;20040;-70
2023/07/31 05:23:15;;;;;;;10.15;4.03;;;30.70;99.90;;;;;;5072066;28;20052;-69
2023/07/31 05:26:19;;;;;;;9.85;3.60;;;30.70;99.90;;;;;;5071963;28;20043;-69
2023/07/31 05:29:22;;;;;;;12.55;4.18;;;30.60;99.90;;;;;;5071638;28;20119;-69
2023/07/31 05:32:27;;;;;;;10.75;3.95;;;30.30;99.90;;;;;;5071678;28;20415;-69
2023/07/31 05:35:31;;;;;;;9.63;4.07;;;31.10;99.90;;;;;;5072360;28;20498;-69
2023/07/31 05:38:37;;;;;;;9.15;4.53;;;31.50;99.90;;;;;;5072074;28;20048;-69
2023/07/31 05:41:41;;;;;;;9.07;3.85;;;31.60;99.90;;;;;;5071120;28;20383;-70
2023/07/31 05:44:46;;;;;;;11.63;3.83;;;31.80;99.90;;;;;;5072821;28;20040;-70
2023/07/31 05:47:51;;;;;;;9.23;3.83;;;32.10;99.90;;;;;;5072983;28;20387;-69
2023/07/31 05:50:56;;;;;;;7.20;3.75;;;32.00;99.90;;;;;;5072600;28;20391;-69
2023/07/31 05:54:00;;;;;;;10.65;3.97;;;32.90;99.90;;;;;;5066007;28;20055;-68
2023/07/31 05:57:06;;;;;;;8.10;3.90;;;33.30;99.90;;;;;;5055798;28;20051;-69
2023/07/31 06:00:10;;;;;;;10.77;3.70;;;33.40;99.50;;;;;;5062674;28;20040;-69
2023/07/31 06:03:15;;;;;;;6.03;2.92;;;32.60;99.70;;;;;;5055884;28;20407;-70
2023/07/31 06:06:19;;;;;;;6.10;3.50;;;33.10;99.90;;;;;;5052201;28;20067;-69
2023/07/31 06:09:23;;;;;;;6.20;3.53;;;30.70;99.60;;;;;;5055504;28;20039;-70
2023/07/31 06:12:27;;;;;;;6.85;3.75;;;29.20;99.90;;;;;;5066873;28;20055;-69
2023/07/31 06:15:31;;;;;;;6.18;3.33;;;28.20;99.90;;;;;;5052496;28;20048;-69
2023/07/31 06:18:36;;;;;;;7.07;3.30;;;27.00;99.90;;;;;;5068203;28;20052;-69
2023/07/31 06:21:43;;;;;;;8.35;3.15;;;28.00;99.90;;;;;;5060937;28;20036;-69
2023/07/31 06:24:47;;;;;;;12.02;3.80;;;28.40;99.90;;;;;;5043500;28;20052;-69
2023/07/31 06:27:53;;;;;;;7.78;3.35;;;28.00;99.90;;;;;;5051871;28;20044;-69
2023/07/31 06:30:58;;;;;;;7.50;3.25;;;28.20;99.90;;;;;;5051633;28;20047;-69
2023/07/31 06:34:03;;;;;;;12.05;3.65;;;28.30;99.90;;;;;;5051456;28;20059;-69
2023/07/31 06:37:07;;;;;;;5.97;2.92;;;28.90;99.90;;;;;;5051891;28;20044;-69
2023/07/31 06:40:11;;;;;;;9.15;3.30;;;29.80;99.90;;;;;;5059876;28;20048;-69
2023/07/31 06:43:16;;;;;;;10.38;3.30;;;30.40;99.90;;;;;;5058048;28;20047;-68
2023/07/31 06:46:20;;;;;;;10.70;3.30;;;31.60;99.90;;;;;;5070052;28;20043;-68
2023/07/31 06:49:26;;;;;;;7.80;3.33;;;32.70;99.90;;;;;;5064925;28;20043;-68
2023/07/31 06:52:30;;;;;;;7.00;2.95;;;33.80;98.30;;;;;;5068719;28;20048;-68
2023/07/31 06:55:34;;;;;;;6.07;2.55;;;34.30;97.20;;;;;;5071468;28;20055;-68
2023/07/31 06:58:40;;;;;;;5.32;2.63;;;34.90;96.60;;;;;;5069063;28;20052;-67
2023/07/31 07:01:44;;;;;;;6.32;2.97;;;33.70;96.90;;;;;;5062285;28;20050;-67
2023/07/31 07:04:50;;;;;;;6.95;2.67;;;31.80;98.00;;;;;;5068987;28;20810;-67
2023/07/31 07:07:54;;;;;;;7.55;3.15;;;32.10;98.30;;;;;;5064524;28;20048;-68
2023/07/31 07:10:58;;;;;;;8.10;3.05;;;32.30;98.50;;;;;;5064403;28;20043;-67
2023/07/31 07:14:02;;;;;;;9.90;2.90;;;32.70;97.50;;;;;;5070803;28;20043;-67
2023/07/31 07:17:07;;;;;;;9.40;3.05;;;32.30;98.00;;;;;;5069253;28;20505;-68
2023/07/31 07:20:12;;;;;;;9.25;2.90;;;33.20;97.50;;;;;;5066089;28;20145;-68
2023/07/31 07:23:17;;;;;;;7.57;2.85;;;34.30;96.50;;;;;;5061948;28;20047;-68
2023/07/31 07:26:20;;;;;;;14.15;3.10;;;35.30;95.60;;;;;;5064940;28;20387;-68
2023/07/31 07:29:25;;;;;;;9.10;2.67;;;36.50;94.60;;;;;;5059352;28;20039;-68
2023/07/31 07:32:30;;;;;;;6.60;2.65;;;37.20;93.20;;;;;;5063059;28;20526;-68
2023/07/31 07:35:35;;;;;;;6.15;2.63;;;37.40;92.80;;;;;;5063887;28;20059;-67
2023/07/31 07:38:40;;;;;;;4.88;2.65;;;36.80;92.60;;;;;;5065284;28;20047;-68
2023/07/31 07:41:44;;;;;;;6.15;2.22;;;35.90;94.20;;;;;;5064220;28;20055;-68
2023/07/31 07:44:49;;;;;;;8.98;2.38;;;37.50;93.10;;;;;;5064927;28;20043;-67
2023/07/31 07:47:52;;;;;;;6.30;2.35;;;38.70;91.50;;;;;;5065148;28;20044;-67
2023/07/31 07:50:56;;;;;;;6.30;2.60;;;38.90;91.00;;;;;;5067090;28;20483;-67
2023/07/31 07:54:00;;;;;;;6.10;2.35;;;39.10;91.00;;;;;;5053105;28;20044;-68
2023/07/31 07:57:04;;;;;;;5.07;2.40;;;39.90;90.60;;;;;;5069585;28;20048;-68
2023/07/31 08:00:10;;;;;;;7.40;2.45;;;40.30;87.50;;;;;;5068072;28;20043;-67
2023/07/31 08:03:20;;;;;;;15.23;2.65;;;40.30;87.80;;;;;;5071054;28;20044;-68
2023/07/31 08:06:24;;;;;;;10.10;2.80;;;40.50;86.80;;;;;;5074832;28;20491;-67
2023/07/31 08:09:28;;;;;;;6.55;2.72;;;40.00;86.80;;;;;;5072984;28;20047;-67
2023/07/31 08:12:33;;;;;;;6.47;2.53;;;39.70;86.30;;;;;;5072150;28;20035;-68
2023/07/31 08:15:37;;;;;;;3.88;2.17;;;39.60;84.80;;;;;;5069197;28;20039;-68
2023/07/31 08:18:42;;;;;;;7.35;2.35;;;39.80;82.30;;;;;;5074273;28;20051;-68
2023/07/31 08:21:46;;;;;;;5.53;1.90;;;40.30;81.70;;;;;;5066186;28;20392;-68
2023/07/31 08:24:50;;;;;;;22.05;3.33;;;40.90;82.00;;;;;;5059859;28;20059;-68
2023/07/31 08:27:54;;;;;;;5.20;2.75;;;42.00;78.40;;;;;;5074198;28;20035;-68
2023/07/31 08:30:58;;;;;;;3.75;2.22;;;42.70;77.20;;;;;;5063208;28;20065;-68
2023/07/31 08:34:03;;;;;;;4.45;2.42;;;43.10;75.10;;;;;;5067232;28;20039;-68
2023/07/31 08:37:07;;;;;;;5.25;3.33;;;42.90;75.10;;;;;;5070751;28;20056;-68
2023/07/31 08:40:11;;;;;;;4.82;2.28;;;42.00;74.80;;;;;;5072818;28;20044;-68
2023/07/31 08:43:15;;;;;;;5.60;1.92;;;41.90;73.90;;;;;;5073198;28;20056;-68
2023/07/31 08:46:21;;;;;;;3.70;2.20;;;41.90;74.80;;;;;;5070291;28;20051;-68
2023/07/31 08:49:25;;;;;;;6.60;2.33;;;42.00;74.30;;;;;;5068307;28;20036;-69
2023/07/31 08:52:30;;;;;;;9.52;2.83;;;42.40;73.30;;;;;;5056884;28;20032;-68
2023/07/31 08:55:35;;;;;;;5.05;2.00;;;43.20;73.10;;;;;;5070611;28;20063;-68
2023/07/31 08:58:40;;;;;;;5.43;2.70;;;43.60;72.50;;;;;;5071416;28;20047;-68
2023/07/31 09:01:50;;;;;;;7.32;2.50;;;42.90;72.10;;;;;;5063264;28;20043;-69
2023/07/31 09:04:55;;;;;;;6.45;2.50;;;42.60;72.00;;;;;;5071423;28;20043;-67
2023/07/31 09:08:02;;;;;;;4.28;1.90;;;42.00;71.80;;;;;;5068643;28;20035;-68
2023/07/31 09:11:05;;;;;;;5.10;2.25;;;42.70;72.50;;;;;;5057455;28;20052;-68
2023/07/31 09:14:10;;;;;;;4.80;2.25;;;43.20;72.20;;;;;;5061193;28;20039;-68
2023/07/31 09:17:14;;;;;;;5.72;2.33;;;43.60;71.40;;;;;;5061004;28;20052;-67
2023/07/31 09:20:20;;;;;;;6.78;2.30;;;43.30;70.30;;;;;;5065011;28;20130;-69
2023/07/31 09:23:25;;;;;;;10.38;2.30;;;43.00;71.90;;;;;;5067456;28;20517;-68
2023/07/31 09:26:36;;;;;;;11.85;2.50;;;42.40;71.70;;;;;;5065921;28;20039;-68
2023/07/31 09:29:41;;;;;;;9.18;2.42;;;42.60;71.20;;;;;;5068209;28;20040;-68
2023/07/31 09:32:46;;;;;;;5.10;2.40;;;43.40;71.00;;;;;;5054802;28;20048;-68
2023/07/31 09:35:50;;;;;;;7.78;2.20;;;44.10;69.80;;;;;;5067147;28;20394;-68
2023/07/31 09:38:54;;;;;;;4.03;2.50;;;43.90;69.10;;;;;;5063858;28;20043;-69
2023/07/31 09:41:58;;;;;;;4.90;2.10;;;43.40;69.00;;;;;;5067811;28;20047;-67
2023/07/31 09:45:09;;;;;;;5.72;2.30;;;43.00;68.00;;;;;;5071159;28;20501;-67
2023/07/31 09:48:18;;;;;;;3.53;2.00;;;44.10;70.10;;;;;;5068725;28;20059;-69
2023/07/31 09:51:28;;;;;;;2.95;2.00;;;45.00;66.70;;;;;;5064597;28;20044;-69
2023/07/31 09:54:32;;;;;;;4.47;2.17;;;45.60;68.00;;;;;;5062255;28;20052;-70
2023/07/31 09:57:41;;;;;;;5.35;1.98;;;45.90;66.70;;;;;;5067845;28;20048;-70
2023/07/31 10:00:45;;;;;;;5.33;2.00;;;47.60;65.90;;;;;;5053009;28;20051;-68
2023/07/31 10:03:49;;;;;;;3.30;2.00;;;48.30;63.40;;;;;;5062702;28;20044;-68
2023/07/31 10:06:54;;;;;;;3.13;1.92;;;48.30;62.50;;;;;;5064840;28;20044;-69
2023/07/31 10:10:00;;;;;;;4.30;1.88;;;48.90;62.20;;;;;;5062609;28;20039;-71
2023/07/31 10:13:05;;;;;;;4.10;1.92;;;49.40;59.50;;;;;;5065636;28;20087;-68
2023/07/31 10:16:10;;;;;;;5.32;2.38;;;49.10;60.60;;;;;;5050690;28;20059;-67
2023/07/31 10:19:14;;;;;;;5.60;2.38;;;49.60;60.70;;;;;;5062622;28;20071;-69
2023/07/31 10:22:21;;;;;;;7.20;2.10;;;50.30;60.20;;;;;;5066726;28;20250;-68
2023/07/31 10:25:28;;;;;;;6.30;2.10;;;49.80;58.80;;;;;;5066859;28;20044;-68
2023/07/31 10:28:34;;;;;;;5.97;2.13;;;49.00;57.00;;;;;;5067812;28;20036;-70
2023/07/31 10:31:39;;;;;;;2.95;2.20;;;45.60;60.10;;;;;;5066606;28;20047;-68
2023/07/31 10:34:45;;;;;;;6.97;2.17;;;46.30;60.10;;;;;;5059200;28;20051;-68
2023/07/31 10:37:52;;;;;;;4.25;1.80;;;46.80;60.50;;;;;;5065725;28;20056;-69
2023/07/31 10:41:08;;;;;;;4.80;2.20;;;46.50;60.80;;;;;;5064679;28;20513;-69
2023/07/31 10:44:13;;;;;;;3.15;2.13;;;48.00;60.10;;;;;;5062756;28;20052;-69
2023/07/31 10:47:18;;;;;;;4.25;2.30;;;48.70;58.80;;;;;;5061188;28;20052;-69
2023/07/31 10:50:26;;;;;;;6.25;2.08;;;48.40;58.20;;;;;;5069145;28;20027;-69
2023/07/31 10:53:35;;;;;;;2.50;2.20;;;48.10;58.10;;;;;;5059787;28;20043;-69
2023/07/31 10:56:39;;;;;;;2.85;2.13;;;47.80;57.20;;;;;;5056425;28;20032;-68
2023/07/31 10:59:44;;;;;;;3.45;2.03;;;48.20;57.90;;;;;;5064534;28;20526;-68
2023/07/31 11:03:08;;;;;;;5.15;2.40;;;46.30;58.30;;;;;;5060131;28;20048;-69
2023/07/31 11:06:14;;;;;;;5.70;2.03;;;48.00;57.20;;;;;;5061138;28;20044;-68
2023/07/31 11:09:17;;;;;;;2.50;1.90;;;44.30;60.40;;;;;;5067662;28;20043;-69
2023/07/31 11:12:23;;;;;;;3.60;2.05;;;46.50;59.20;;;;;;5064203;28;20043;-69
2023/07/31 11:15:27;;;;;;;3.40;2.00;;;48.20;58.10;;;;;;5061306;28;20414;-69
2023/07/31 11:18:31;;;;;;;6.68;2.08;;;49.10;56.80;;;;;;5058906;28;20395;-68
2023/07/31 11:21:36;;;;;;;4.10;1.80;;;49.00;57.50;;;;;;5055321;28;20052;-69
2023/07/31 11:24:43;;;;;;;3.80;2.00;;;48.50;56.20;;;;;;5060680;28;20047;-70
2023/07/31 11:27:50;;;;;;;3.63;2.05;;;49.20;56.90;;;;;;5059537;28;20048;-68
2023/07/31 11:30:56;;;;;;;4.40;2.15;;;49.70;56.40;;;;;;5056818;28;20044;-68
2023/07/31 11:34:06;;;;;;;4.55;2.03;;;50.10;56.20;;;;;;5060286;28;20052;-64
2023/07/31 11:37:10;;;;;;;3.63;2.00;;;48.30;56.40;;;;;;5053133;28;20052;-65
2023/07/31 11:40:15;;;;;;;3.88;2.13;;;47.80;56.50;;;;;;5067704;28;20976;-64
2023/07/31 11:43:20;;;;;;;2.92;2.08;;;48.30;56.70;;;;;;5061570;28;20056;-66
2023/07/31 11:46:25;;;;;;;5.35;2.20;;;48.20;57.40;;;;;;5053937;28;20056;-65
2023/07/31 11:49:29;;;;;;;4.47;2.40;;;46.40;58.50;;;;;;5062161;28;20040;-65
2023/07/31 11:52:41;;;;;;;3.13;2.10;;;42.90;59.10;;;;;;5065817;28;20039;-64
2023/07/31 11:55:46;;;;;;;4.07;2.25;;;43.70;60.10;;;;;;5062783;28;20047;-64
2023/07/31 11:58:59;;;;;;;4.35;1.92;;;45.40;59.20;;;;;;5064184;28;20048;-64
2023/07/31 12:02:05;;;;;;;5.45;2.22;;;44.00;59.90;;;;;;5056750;28;20051;-64
2023/07/31 12:05:13;;;;;;;4.88;2.35;;;45.50;59.50;;;;;;5059979;28;20043;-65
2023/07/31 12:08:20;;;;;;;8.27;2.00;;;46.60;58.40;;;;;;5066824;28;20040;-64
2023/07/31 12:11:24;;;;;;;3.03;2.13;;;46.90;58.50;;;;;;5055113;28;20032;-63
2023/07/31 12:14:32;;;;;;;4.53;2.13;;;47.20;58.20;;;;;;5057716;28;20051;-65
2023/07/31 12:17:36;;;;;;;3.50;2.10;;;47.00;58.80;;;;;;5059211;28;20047;-64
2023/07/31 12:20:42;;;;;;;3.85;2.00;;;46.80;58.60;;;;;;5057795;28;20486;-63
2023/07/31 12:23:48;;;;;;;4.00;2.25;;;46.90;58.30;;;;;;5056312;28;20044;-65
2023/07/31 12:26:52;;;;;;;5.38;2.13;;;46.20;58.30;;;;;;5056388;28;20040;-65
2023/07/31 12:29:56;;;;;;;4.90;2.55;;;46.00;58.60;;;;;;5060512;28;20047;-64
2023/07/31 12:33:12;;;;;;;4.43;2.33;;;44.20;58.80;;;;;;5060731;28;20056;-64
2023/07/31 12:36:21;;;;;;;9.48;3.33;;;43.70;60.50;;;;;;5049738;28;20499;-64
2023/07/31 12:39:26;;;;;;;6.70;2.88;;;44.00;60.20;;;;;;5055813;28;20075;-64
2023/07/31 12:42:31;;;;;;;6.18;2.53;;;42.70;59.90;;;;;;5065878;28;20106;-63
2023/07/31 12:45:35;;;;;;;5.10;2.67;;;41.00;60.80;;;;;;5049727;28;20060;-63
2023/07/31 12:48:40;;;;;;;4.93;2.63;;;41.50;60.70;;;;;;5064649;28;20039;-63
2023/07/31 12:51:44;;;;;;;4.53;2.40;;;40.10;60.20;;;;;;5072986;28;20040;-63
2023/07/31 12:54:48;;;;;;;6.55;2.60;;;37.00;64.20;;;;;;5067785;28;20048;-63
2023/07/31 12:57:52;;;;;;;5.95;2.63;;;37.80;66.00;;;;;;5066350;28;20051;-64
2023/07/31 13:00:56;;;;;;;3.88;2.50;;;39.00;64.70;;;;;;5053538;28;20048;-63
2023/07/31 13:04:00;;;;;;;7.15;2.60;;;39.70;62.50;;;;;;5056422;28;20424;-64
2023/07/31 13:07:05;;;;;;;4.93;2.60;;;39.50;63.10;;;;;;5066606;28;20043;-64
2023/07/31 13:10:09;;;;;;;3.47;2.10;;;39.90;62.40;;;;;;5066375;28;20040;-63
2023/07/31 13:13:13;;;;;;;5.15;2.60;;;39.50;62.40;;;;;;5053083;28;20044;-63
2023/07/31 13:16:17;;;;;;;5.22;2.67;;;36.40;63.40;;;;;;5058612;28;20044;-63
2023/07/31 13:19:21;;;;;;;6.65;2.95;;;35.90;64.30;;;;;;5061350;28;20431;-64
2023/07/31 13:22:25;;;;;;;9.38;2.95;;;37.40;64.10;;;;;;5067376;28;20055;-64
2023/07/31 13:25:30;;;;;;;7.00;2.95;;;38.80;63.50;;;;;;5058685;28;20039;-65
2023/07/31 13:28:33;;;;;;;3.58;2.50;;;39.50;61.30;;;;;;5052941;28;20044;-64
2023/07/31 13:31:37;;;;;;;4.07;2.70;;;39.70;61.40;;;;;;5059545;28;20068;-64
2023/07/31 13:34:44;;;;;;;4.93;2.50;;;39.80;60.50;;;;;;5052682;28;20507;-64
2023/07/31 13:37:49;;;;;;;6.47;2.88;;;39.80;59.40;;;;;;5056879;28;20052;-63
2023/07/31 13:40:53;;;;;;;3.55;2.70;;;38.90;59.50;;;;;;5052437;28;20392;-64
2023/07/31 13:43:57;;;;;;;4.53;2.42;;;38.50;61.60;;;;;;5052278;28;20051;-64
2023/07/31 13:47:01;;;;;;;6.53;2.78;;;37.90;62.50;;;;;;5052915;28;20048;-64
2023/07/31 13:50:06;;;;;;;5.20;2.67;;;38.10;62.30;;;;;;5052183;28;20048;-64
2023/07/31 13:53:10;;;;;;;6.47;2.58;;;38.20;62.50;;;;;;5061103;28;20415;-63
2023/07/31 13:56:14;;;;;;;10.63;3.08;;;36.80;63.30;;;;;;5072178;28;20039;-64
2023/07/31 13:59:18;;;;;;;6.00;2.80;;;36.10;64.60;;;;;;5072347;28;20044;-64
2023/07/31 14:02:22;;;;;;;4.35;2.78;;;35.40;63.40;;;;;;5071319;28;20047;-63
2023/07/31 14:05:26;;;;;;;3.85;2.20;;;35.80;64.20;;;;;;5062068;28;20044;-63
2023/07/31 14:08:32;;;;;;;6.38;3.13;;;35.60;65.20;;;;;;5051743;28;20395;-63
2023/07/31 14:11:36;;;;;;;4.22;2.40;;;36.20;64.20;;;;;;5056438;28;20051;-63
2023/07/31 14:14:39;;;;;;;7.00;2.65;;;36.20;64.80;;;;;;5064292;28;20048;-63
2023/07/31 14:17:43;;;;;;;3.90;2.90;;;36.70;63.90;;;;;;5057924;28;20052;-63
2023/07/31 14:20:48;;;;;;;7.28;2.78;;;36.60;63.20;;;;;;5056544;28;20494;-63
2023/07/31 14:23:52;;;;;;;5.60;2.60;;;36.00;65.10;;;;;;5056481;28;20040;-65
2023/07/31 14:26:57;;;;;;;4.50;3.00;;;35.00;65.60;;;;;;5053065;28;20071;-65
2023/07/31 14:30:01;;;;;;;7.40;3.13;;;35.20;65.50;;;;;;5064873;28;20044;-65
2023/07/31 14:33:06;;;;;;;6.28;2.85;;;35.80;65.30;;;;;;5069697;28;20047;-65
2023/07/31 14:36:10;;;;;;;5.13;2.80;;;36.10;64.60;;;;;;5064713;28;20495;-64
2023/07/31 14:39:14;;;;;;;12.80;3.30;;;36.30;63.50;;;;;;5069131;28;20035;-64
2023/07/31 14:42:19;;;;;;;8.98;2.95;;;35.70;65.70;;;;;;5090428;28;20043;-64
2023/07/31 14:45:24;;;;;;;5.03;2.65;;;35.90;65.60;;;;;;5091228;28;20043;-64
2023/07/31 14:48:29;;;;;;;5.38;2.60;;;36.00;64.50;;;;;;5091387;28;20394;-64
2023/07/31 14:51:33;;;;;;;3.25;2.40;;;36.20;64.90;;;;;;5091133;28;20043;-64
2023/07/31 14:54:36;;;;;;;5.38;2.55;;;36.30;64.50;;;;;;5078714;28;20039;-64
2023/07/31 14:57:41;;;;;;;4.38;2.50;;;36.20;64.30;;;;;;5090860;28;20051;-65
2023/07/31 15:00:45;;;;;;;6.45;2.70;;;36.30;65.00;;;;;;5091281;28;20051;-65
2023/07/31 15:03:49;;;;;;;3.47;2.53;;;35.90;64.90;;;;;;5091148;28;20046;-64
2023/07/31 15:06:53;;;;;;;4.53;2.70;;;35.60;64.20;;;;;;5090829;28;20055;-64
2023/07/31 15:09:57;;;;;;;5.13;2.65;;;35.40;64.90;;;;;;5091103;28;20039;-64
2023/07/31 15:13:01;;;;;;;6.25;2.80;;;35.30;64.00;;;;;;5090197;28;20047;-65
2023/07/31 15:16:05;;;;;;;6.20;3.03;;;35.40;65.50;;;;;;5090855;28;20051;-64
2023/07/31 15:19:10;;;;;;;5.20;2.65;;;35.20;65.40;;;;;;5091014;28;20051;-64
2023/07/31 15:22:14;;;;;;;4.18;2.72;;;35.00;66.30;;;;;;5090787;28;20122;-65
2023/07/31 15:25:18;;;;;;;3.85;2.60;;;35.00;66.80;;;;;;5091136;28;20055;-64
2023/07/31 15:28:22;;;;;;;4.82;2.70;;;34.90;67.60;;;;;;5090820;28;20386;-64
2023/07/31 15:31:26;;;;;;;4.70;2.53;;;34.60;66.70;;;;;;5090584;28;20572;-64
2023/07/31 15:34:30;;;;;;;5.05;2.75;;;34.50;66.60;;;;;;5090953;28;20059;-64
2023/07/31 15:37:35;;;;;;;4.40;2.78;;;34.60;66.00;;;;;;5091039;28;20051;-64
2023/07/31 15:40:39;;;;;;;3.47;2.78;;;34.80;67.50;;;;;;5090746;28;20054;-65
2023/07/31 15:43:43;;;;;;;6.40;2.70;;;34.70;68.00;;;;;;5090835;28;20050;-65
2023/07/31 15:46:47;;;;;;;7.80;2.65;;;34.60;68.50;;;;;;5090315;28;20066;-65
2023/07/31 15:49:50;;;;;;;8.02;2.88;;;34.50;68.20;;;;;;5090562;28;20035;-65
2023/07/31 15:52:55;;;;;;;4.88;2.65;;;34.50;67.80;;;;;;5090265;28;20043;-64
2023/07/31 15:56:00;;;;;;;5.68;2.97;;;34.50;68.40;;;;;;5090673;28;20051;-64
2023/07/31 15:59:04;;;;;;;6.57;3.08;;;34.60;68.60;;;;;;5090581;28;20043;-64
2023/07/31 16:02:11;;;;;;;3.53;2.80;;;34.80;67.70;;;;;;5090318;28;20051;-65